createdAt,value
2022-09-13T00:00:42.907Z,83.79
2022-09-13T00:06:14.765Z,82.27
2022-09-13T00:11:46.558Z,82.81
2022-09-13T00:17:18.507Z,83.76
2022-09-13T00:22:50.178Z,83.38
2022-09-13T00:28:21.605Z,83.69
2022-09-13T00:36:14.069Z,83.49
2022-09-13T00:41:45.870Z,82.94
2022-09-13T00:47:17.617Z,83.06
2022-09-13T00:52:49.318Z,82.39
2022-09-13T00:58:20.940Z,82.75
2022-09-13T01:09:23.802Z,83.91
2022-09-13T01:14:55.425Z,83.50
2022-09-13T01:20:27.178Z,85.17
2022-09-13T01:25:59.204Z,83.92
2022-09-13T01:31:30.916Z,83.43
2022-09-13T01:37:02.440Z,83.74
2022-09-13T01:42:33.744Z,83.43
2022-09-13T01:48:05.137Z,83.60
2022-09-13T01:53:37.010Z,84.14
2022-09-13T01:59:08.815Z,84.15
2022-09-13T02:04:40.492Z,83.95
2022-09-13T02:10:12.101Z,84.44
2022-09-13T02:15:43.628Z,85.00
2022-09-13T02:21:15.313Z,84.48
2022-09-13T02:26:47.017Z,84.63
2022-09-13T02:32:18.323Z,83.11
2022-09-13T02:37:49.792Z,83.93
2022-09-13T02:43:21.374Z,84.11
2022-09-13T02:48:52.787Z,82.95
2022-09-13T02:54:24.022Z,83.54
2022-09-13T03:05:25.077Z,85.23
2022-09-13T03:10:57.064Z,84.73
2022-09-13T03:16:28.760Z,83.98
2022-09-13T03:22:02.090Z,84.71
2022-09-13T03:27:33.870Z,86.02
2022-09-13T03:33:05.468Z,86.34
2022-09-13T03:38:37.217Z,86.43
2022-09-13T03:44:08.771Z,85.40
2022-09-13T03:49:40.263Z,85.90
2022-09-13T03:55:11.967Z,85.75
2022-09-13T04:00:44.015Z,86.32
2022-09-13T04:06:15.546Z,85.95
2022-09-13T04:11:47.064Z,86.47
2022-09-13T04:17:18.609Z,86.58
2022-09-13T04:22:50.539Z,86.55
2022-09-13T04:28:22.190Z,86.93
2022-09-13T04:33:53.643Z,86.12
2022-09-13T04:39:25.309Z,85.92
2022-09-13T04:44:57.131Z,85.61
2022-09-13T04:50:28.866Z,85.92
2022-09-13T04:56:00.892Z,86.18
2022-09-13T05:07:02.264Z,86.68
2022-09-13T05:12:33.717Z,84.91
2022-09-13T05:18:05.744Z,83.42
2022-09-13T05:23:37.284Z,81.87
2022-09-13T05:29:08.862Z,79.49
2022-09-13T05:34:40.229Z,78.17
2022-09-13T05:40:12.651Z,76.42
2022-09-13T05:45:43.838Z,75.45
2022-09-13T05:51:15.146Z,73.91
2022-09-13T05:56:46.941Z,70.14
2022-09-13T06:02:18.530Z,68.75
2022-09-13T06:07:50.017Z,67.09
2022-09-13T06:13:22.151Z,64.20
2022-09-13T06:18:53.994Z,60.39
2022-09-13T06:21:17.167Z,62.33
2022-09-13T06:26:48.930Z,61.26
2022-09-13T06:32:20.267Z,61.01
2022-09-13T06:37:51.931Z,58.15
2022-09-13T06:43:23.461Z,56.48
2022-09-13T06:48:54.886Z,56.56
2022-09-13T06:54:26.690Z,54.80
2022-09-13T07:02:18.234Z,54.18
2022-09-13T07:07:48.861Z,52.03
2022-09-13T07:13:20.070Z,48.62
2022-09-13T07:18:51.880Z,46.55
2022-09-13T07:24:23.468Z,50.34
2022-09-13T07:29:55.365Z,47.04
2022-09-13T07:35:27.300Z,43.88
2022-09-13T07:40:58.931Z,44.53
2022-09-13T07:46:30.430Z,42.94
2022-09-13T07:52:02.591Z,42.75
2022-09-13T07:57:33.850Z,45.50
2022-09-13T08:03:05.181Z,41.55
2022-09-13T08:08:36.302Z,42.13
2022-09-13T08:14:08.013Z,41.65
2022-09-13T08:19:39.743Z,42.14
2022-09-13T08:25:11.628Z,42.82
2022-09-13T08:30:43.214Z,42.64
2022-09-13T08:36:14.961Z,42.42
2022-09-13T08:41:46.310Z,43.85
2022-09-13T08:47:17.835Z,43.67
2022-09-13T08:58:18.149Z,44.01
2022-09-13T09:09:19.068Z,43.50
2022-09-13T09:14:50.608Z,44.30
2022-09-13T09:20:22.411Z,44.35
2022-09-13T09:25:54.149Z,44.75
2022-09-13T09:31:26.120Z,45.79
2022-09-13T09:36:57.370Z,46.66
2022-09-13T09:42:28.829Z,47.24
2022-09-13T09:48:00.688Z,47.61
2022-09-13T09:53:36.597Z,48.40
2022-09-13T09:59:03.596Z,48.40
2022-09-13T10:04:35.286Z,48.04
2022-09-13T10:10:06.649Z,48.22
2022-09-13T10:15:37.833Z,48.41
2022-09-13T10:21:09.143Z,48.74
2022-09-13T10:26:40.670Z,49.19
2022-09-13T10:32:12.647Z,48.39
2022-09-13T10:37:44.353Z,47.89
2022-09-13T10:43:15.768Z,48.69
2022-09-13T10:48:47.255Z,48.14
2022-09-13T10:54:18.569Z,46.60
2022-09-13T10:59:49.959Z,47.54
2022-09-13T11:05:21.743Z,44.21
2022-09-13T11:10:53.740Z,45.72
2022-09-13T11:16:25.405Z,45.06
2022-09-13T11:21:57.235Z,43.58
2022-09-13T11:27:29.131Z,42.44
2022-09-13T11:33:00.899Z,43.09
2022-09-13T11:44:01.641Z,40.31
2022-09-13T11:49:33.384Z,40.69
2022-09-13T11:55:04.594Z,40.88
2022-09-13T12:06:07.315Z,41.86
2022-09-13T12:11:38.612Z,43.24
2022-09-13T12:17:10.118Z,41.36
2022-09-13T12:22:41.869Z,41.76
2022-09-13T12:39:12.575Z,41.84
2022-09-13T12:44:44.010Z,43.44
2022-09-13T12:55:47.377Z,42.82
2022-09-13T13:01:16.260Z,43.78
2022-09-13T13:06:47.910Z,42.85
2022-09-13T13:12:21.146Z,43.02
2022-09-13T13:17:52.428Z,42.67
2022-09-13T13:23:23.753Z,41.55
2022-09-13T13:28:55.021Z,42.01
2022-09-13T13:39:57.578Z,41.17
2022-09-13T13:45:29.289Z,40.25
2022-09-13T13:51:00.950Z,40.01
2022-09-13T13:56:32.867Z,40.45
2022-09-13T14:02:04.603Z,41.12
2022-09-13T14:07:35.833Z,38.66
2022-09-13T14:13:07.349Z,37.94
2022-09-13T14:18:38.858Z,39.32
2022-09-13T14:24:10.137Z,39.83
2022-09-13T14:29:41.698Z,38.16
2022-09-13T14:35:13.511Z,38.75
2022-09-13T14:40:45.116Z,37.99
2022-09-13T14:46:16.779Z,37.69
2022-09-13T14:51:48.189Z,35.89
2022-09-13T14:57:19.533Z,36.15
2022-09-13T15:02:51.376Z,37.94
2022-09-13T15:08:25.478Z,37.34
2022-09-13T15:13:54.368Z,38.80
2022-09-13T15:19:26.100Z,41.83
2022-09-13T15:24:57.381Z,44.17
2022-09-13T15:30:28.872Z,45.73
2022-09-13T15:36:00.619Z,46.79
2022-09-13T15:41:31.975Z,46.80
2022-09-13T15:47:04.016Z,48.10
2022-09-13T15:52:35.468Z,48.12
2022-09-13T15:58:07.449Z,48.51
2022-09-13T16:03:39.026Z,49.29
2022-09-13T16:09:10.414Z,49.53
2022-09-13T16:14:41.839Z,50.49
2022-09-13T16:20:13.532Z,49.15
2022-09-13T16:25:45.439Z,49.68
2022-09-13T16:31:17.135Z,49.90
2022-09-13T16:36:48.838Z,51.06
2022-09-13T16:42:20.814Z,51.23
2022-09-13T16:47:52.397Z,52.74
2022-09-13T16:53:24.258Z,53.68
2022-09-13T16:58:56.027Z,54.01
2022-09-13T17:04:27.723Z,54.13
2022-09-13T17:09:59.336Z,54.87
2022-09-13T17:15:31.072Z,55.03
2022-09-13T17:21:03.047Z,55.79
2022-09-13T17:26:34.962Z,55.86
2022-09-13T17:32:06.626Z,56.69
2022-09-13T17:37:38.540Z,57.02
2022-09-13T17:43:10.562Z,57.66
2022-09-13T17:48:42.433Z,58.66
2022-09-13T17:54:13.889Z,58.53
2022-09-13T17:59:45.905Z,58.31
2022-09-13T18:05:17.805Z,58.75
2022-09-13T18:11:10.677Z,59.92
2022-09-13T18:16:21.763Z,60.40
2022-09-13T18:21:53.045Z,61.37
2022-09-13T18:27:24.778Z,61.92
2022-09-13T18:32:56.443Z,62.11
2022-09-13T18:38:28.296Z,62.65
2022-09-13T18:44:00.345Z,63.03
2022-09-13T18:49:31.841Z,62.36
2022-09-13T18:55:03.460Z,63.52
2022-09-13T19:00:35.220Z,63.98
2022-09-13T19:06:06.991Z,63.57
2022-09-13T19:11:47.434Z,65.18
2022-09-13T19:17:10.018Z,65.29
2022-09-13T19:22:42.096Z,64.67
2022-09-13T19:28:13.585Z,63.15
2022-09-13T19:33:45.537Z,63.43
2022-09-13T19:39:17.107Z,65.14
2022-09-13T19:44:48.664Z,66.03
2022-09-13T19:50:20.252Z,65.58
2022-09-13T19:55:51.920Z,66.79
2022-09-13T20:01:23.280Z,67.57
2022-09-13T20:06:54.671Z,68.57
2022-09-13T20:12:26.090Z,68.28
2022-09-13T20:14:38.161Z,68.44
2022-09-13T20:20:09.437Z,69.06
2022-09-13T20:25:40.820Z,69.29
2022-09-13T20:31:12.045Z,70.48
2022-09-13T20:36:43.310Z,71.17
2022-09-13T20:42:14.947Z,71.61
2022-09-13T20:47:46.540Z,71.67
2022-09-13T20:53:17.840Z,73.71
2022-09-13T20:58:51.669Z,73.92
2022-09-13T21:09:52.832Z,74.79
2022-09-13T21:15:24.423Z,74.14
2022-09-13T21:20:55.950Z,74.27
2022-09-13T21:26:27.714Z,74.55
2022-09-13T21:37:28.492Z,75.46
2022-09-13T21:42:59.899Z,75.98
2022-09-13T21:48:31.509Z,75.68
2022-09-13T21:54:03.380Z,75.94
2022-09-13T21:59:35.207Z,74.52
2022-09-13T22:05:06.724Z,73.92
2022-09-13T22:10:38.000Z,75.24
2022-09-13T22:16:09.665Z,75.02
2022-09-13T22:21:41.502Z,75.88
2022-09-13T22:27:13.103Z,78.09
2022-09-13T22:32:44.885Z,79.02
2022-09-13T22:38:16.839Z,77.74
2022-09-13T22:43:48.363Z,77.75
2022-09-13T22:49:19.536Z,79.75
2022-09-13T22:54:50.954Z,80.04
2022-09-13T23:00:22.227Z,80.91
2022-09-13T23:05:53.541Z,81.11
2022-09-13T23:13:38.009Z,80.62
2022-09-13T23:19:09.318Z,81.21
2022-09-13T23:24:40.895Z,79.17
2022-09-13T23:30:12.444Z,79.96
2022-09-13T23:35:43.773Z,80.64
2022-09-13T23:41:15.036Z,80.48
2022-09-13T23:46:46.484Z,80.45
2022-09-13T23:52:18.141Z,80.11
2022-09-13T23:57:49.244Z,79.87
